sensor_id;sensor_type;location;lat;lon;timestamp;pressure;altitude;pressure_sealevel;temperature;humidity
3096;BME280;1558;42.700;23.360;2022-07-11T00:00:14;95246.34;;;16.85;91.47
3096;BME280;1558;42.700;23.360;2022-07-11T00:02:42;95287.88;;;17.12;92.38
3096;BME280;1558;42.700;23.360;2022-07-11T00:05:10;95297.97;;;17.08;92.59
3096;BME280;1558;42.700;23.360;2022-07-11T00:07:39;95290.50;;;17.01;93.69
3096;BME280;1558;42.700;23.360;2022-07-11T00:10:07;95300.63;;;17.01;93.03
3096;BME280;1558;42.700;23.360;2022-07-11T00:12:35;95290.97;;;17.07;93.49
3096;BME280;1558;42.700;23.360;2022-07-11T00:15:03;95287.16;;;17.15;93.54
3096;BME280;1558;42.700;23.360;2022-07-11T00:17:32;95289.34;;;17.02;92.61
3096;BME280;1558;42.700;23.360;2022-07-11T00:20:00;95285.53;;;17.07;91.87
3096;BME280;1558;42.700;23.360;2022-07-11T00:22:28;95277.06;;;17.19;89.90
3096;BME280;1558;42.700;23.360;2022-07-11T00:24:57;95290.81;;;17.29;88.90
3096;BME280;1558;42.700;23.360;2022-07-11T00:27:25;95290.09;;;17.36;87.98
3096;BME280;1558;42.700;23.360;2022-07-11T00:29:53;95295.19;;;17.37;88.03
3096;BME280;1558;42.700;23.360;2022-07-11T00:32:21;95295.88;;;17.31;87.41
3096;BME280;1558;42.700;23.360;2022-07-11T00:34:49;95292.75;;;17.29;87.65
3096;BME280;1558;42.700;23.360;2022-07-11T00:37:17;95295.53;;;17.32;87.04
3096;BME280;1558;42.700;23.360;2022-07-11T00:39:45;95305.66;;;17.35;87.24
3096;BME280;1558;42.700;23.360;2022-07-11T00:42:17;95283.34;;;17.23;86.11
3096;BME280;1558;42.700;23.360;2022-07-11T00:44:45;95296.31;;;17.33;86.01
3096;BME280;1558;42.700;23.360;2022-07-11T00:47:13;95306.03;;;17.30;86.05
3096;BME280;1558;42.700;23.360;2022-07-11T00:49:41;95305.25;;;17.30;85.90
3096;BME280;1558;42.700;23.360;2022-07-11T00:52:09;95217.66;;;16.61;85.92
3096;BME280;1558;42.700;23.360;2022-07-11T00:54:37;95308.28;;;17.25;85.60
3096;BME280;1558;42.700;23.360;2022-07-11T00:57:05;95305.09;;;17.19;85.65
3096;BME280;1558;42.700;23.360;2022-07-11T00:59:35;95306.31;;;17.22;86.28
3096;BME280;1558;42.700;23.360;2022-07-11T01:02:03;95264.31;;;16.89;85.91
3096;BME280;1558;42.700;23.360;2022-07-11T01:04:32;95310.88;;;17.14;86.17
3096;BME280;1558;42.700;23.360;2022-07-11T01:07:01;95297.91;;;17.01;86.76
3096;BME280;1558;42.700;23.360;2022-07-11T01:09:30;95301.94;;;17.14;86.45
3096;BME280;1558;42.700;23.360;2022-07-11T01:11:58;95298.63;;;16.98;86.92
3096;BME280;1558;42.700;23.360;2022-07-11T01:14:26;95308.13;;;17.11;87.27
3096;BME280;1558;42.700;23.360;2022-07-11T01:16:55;95311.22;;;17.09;87.09
3096;BME280;1558;42.700;23.360;2022-07-11T01:19:23;95311.19;;;17.06;87.22
3096;BME280;1558;42.700;23.360;2022-07-11T01:21:52;95307.25;;;17.00;87.03
3096;BME280;1558;42.700;23.360;2022-07-11T01:24:24;95305.00;;;17.09;87.45
3096;BME280;1558;42.700;23.360;2022-07-11T01:26:53;95308.13;;;17.11;87.33
3096;BME280;1558;42.700;23.360;2022-07-11T01:29:23;95318.22;;;17.07;87.21
3096;BME280;1558;42.700;23.360;2022-07-11T01:31:51;95307.66;;;17.02;87.32
3096;BME280;1558;42.700;23.360;2022-07-11T01:34:19;95312.56;;;16.92;87.70
3096;BME280;1558;42.700;23.360;2022-07-11T01:36:47;95305.59;;;16.95;87.85
3096;BME280;1558;42.700;23.360;2022-07-11T01:39:15;95268.41;;;16.76;89.43
3096;BME280;1558;42.700;23.360;2022-07-11T01:41:44;95316.66;;;17.06;89.57
3096;BME280;1558;42.700;23.360;2022-07-11T01:44:12;95305.88;;;17.16;89.95
3096;BME280;1558;42.700;23.360;2022-07-11T01:46:40;95298.78;;;17.12;89.31
3096;BME280;1558;42.700;23.360;2022-07-11T01:49:08;95308.13;;;17.11;89.02
3096;BME280;1558;42.700;23.360;2022-07-11T01:51:36;95308.78;;;16.97;88.82
3096;BME280;1558;42.700;23.360;2022-07-11T01:54:05;95313.25;;;16.82;88.18
3096;BME280;1558;42.700;23.360;2022-07-11T01:56:32;95312.88;;;16.84;88.27
3096;BME280;1558;42.700;23.360;2022-07-11T01:59:02;95313.16;;;16.75;88.39
3096;BME280;1558;42.700;23.360;2022-07-11T02:01:30;95313.91;;;16.72;87.68
3096;BME280;1558;42.700;23.360;2022-07-11T02:03:59;95313.06;;;16.68;88.03
3096;BME280;1558;42.700;23.360;2022-07-11T02:06:27;95323.19;;;16.68;88.14
3096;BME280;1558;42.700;23.360;2022-07-11T02:08:55;95268.22;;;16.33;87.47
3096;BME280;1558;42.700;23.360;2022-07-11T02:11:23;95317.69;;;16.64;87.75
3096;BME280;1558;42.700;23.360;2022-07-11T02:13:51;95313.13;;;16.46;88.28
3096;BME280;1558;42.700;23.360;2022-07-11T02:16:20;95322.50;;;16.48;88.88
3096;BME280;1558;42.700;23.360;2022-07-11T02:18:49;95329.00;;;16.40;89.85
3096;BME280;1558;42.700;23.360;2022-07-11T02:21:17;95328.16;;;16.36;90.26
3096;BME280;1558;42.700;23.360;2022-07-11T02:23:45;95326.44;;;16.24;90.88
3096;BME280;1558;42.700;23.360;2022-07-11T02:26:14;95223.41;;;15.48;91.22
3096;BME280;1558;42.700;23.360;2022-07-11T02:28:41;95328.13;;;16.10;91.82
3096;BME280;1558;42.700;23.360;2022-07-11T02:31:11;95331.91;;;16.02;93.03
3096;BME280;1558;42.700;23.360;2022-07-11T02:33:40;95340.00;;;15.98;93.63
3096;BME280;1558;42.700;23.360;2022-07-11T02:36:09;95335.47;;;16.06;93.50
3096;BME280;1558;42.700;23.360;2022-07-11T02:38:37;95335.06;;;16.04;93.23
3096;BME280;1558;42.700;23.360;2022-07-11T02:41:05;95341.03;;;16.13;93.68
3096;BME280;1558;42.700;23.360;2022-07-11T02:43:33;95318.25;;;15.98;93.59
3096;BME280;1558;42.700;23.360;2022-07-11T02:46:01;95332.16;;;15.93;93.77
3096;BME280;1558;42.700;23.360;2022-07-11T02:48:29;95330.84;;;15.84;94.23
3096;BME280;1558;42.700;23.360;2022-07-11T02:50:58;95324.63;;;15.61;94.10
3096;BME280;1558;42.700;23.360;2022-07-11T02:53:26;95349.94;;;15.87;94.54
3096;BME280;1558;42.700;23.360;2022-07-11T02:55:54;95354.63;;;15.90;94.32
3096;BME280;1558;42.700;23.360;2022-07-11T02:58:22;95343.09;;;15.97;94.14
3096;BME280;1558;42.700;23.360;2022-07-11T03:00:50;95348.25;;;16.02;93.51
3096;BME280;1558;42.700;23.360;2022-07-11T03:03:18;95307.03;;;15.77;93.28
3096;BME280;1558;42.700;23.360;2022-07-11T03:05:47;95354.09;;;16.04;93.22
3096;BME280;1558;42.700;23.360;2022-07-11T03:08:16;95359.53;;;16.04;93.42
3096;BME280;1558;42.700;23.360;2022-07-11T03:10:44;95359.44;;;15.97;93.76
3096;BME280;1558;42.700;23.360;2022-07-11T03:13:12;95370.25;;;15.93;93.78
3096;BME280;1558;42.700;23.360;2022-07-11T03:15:40;95370.97;;;15.90;94.47
3096;BME280;1558;42.700;23.360;2022-07-11T03:18:08;95354.47;;;15.80;94.51
3096;BME280;1558;42.700;23.360;2022-07-11T03:20:38;95357.81;;;15.92;94.79
3096;BME280;1558;42.700;23.360;2022-07-11T03:23:06;95367.91;;;15.92;94.61
3096;BME280;1558;42.700;23.360;2022-07-11T03:25:35;95372.91;;;15.90;94.84
3096;BME280;1558;42.700;23.360;2022-07-11T03:28:03;95373.94;;;15.82;95.06
3096;BME280;1558;42.700;23.360;2022-07-11T03:30:32;95373.16;;;15.81;95.25
3096;BME280;1558;42.700;23.360;2022-07-11T03:33:00;95384.16;;;15.88;95.12
3096;BME280;1558;42.700;23.360;2022-07-11T03:35:28;95385.13;;;15.99;95.65
3096;BME280;1558;42.700;23.360;2022-07-11T03:38:10;95378.03;;;16.17;95.19
3096;BME280;1558;42.700;23.360;2022-07-11T03:40:40;95358.19;;;16.17;94.80
3096;BME280;1558;42.700;23.360;2022-07-11T03:43:08;95380.47;;;16.49;94.20
3096;BME280;1558;42.700;23.360;2022-07-11T03:45:36;95377.94;;;16.37;92.95
3096;BME280;1558;42.700;23.360;2022-07-11T03:48:05;95388.72;;;16.30;92.45
3096;BME280;1558;42.700;23.360;2022-07-11T03:50:34;95369.06;;;16.17;93.93
3096;BME280;1558;42.700;23.360;2022-07-11T03:53:02;95389.88;;;16.51;93.81
3096;BME280;1558;42.700;23.360;2022-07-11T03:55:30;95391.72;;;16.47;92.84
3096;BME280;1558;42.700;23.360;2022-07-11T03:58:00;95396.72;;;16.45;92.15
3096;BME280;1558;42.700;23.360;2022-07-11T04:00:28;95395.06;;;16.37;92.31
3096;BME280;1558;42.700;23.360;2022-07-11T04:02:56;95368.78;;;16.22;93.53
3096;BME280;1558;42.700;23.360;2022-07-11T04:05:24;95402.25;;;16.49;92.57
3096;BME280;1558;42.700;23.360;2022-07-11T04:07:53;95378.22;;;16.28;91.72
3096;BME280;1558;42.700;23.360;2022-07-11T04:10:21;95395.19;;;16.44;90.76
3096;BME280;1558;42.700;23.360;2022-07-11T04:12:49;95410.28;;;16.64;90.45
3096;BME280;1558;42.700;23.360;2022-07-11T04:15:18;95418.22;;;16.73;89.62
3096;BME280;1558;42.700;23.360;2022-07-11T04:17:47;95412.53;;;16.85;88.75
3096;BME280;1558;42.700;23.360;2022-07-11T04:20:15;95400.75;;;16.77;89.17
3096;BME280;1558;42.700;23.360;2022-07-11T04:22:43;95382.31;;;16.67;89.12
3096;BME280;1558;42.700;23.360;2022-07-11T04:25:11;95416.13;;;16.92;89.50
3096;BME280;1558;42.700;23.360;2022-07-11T04:27:38;95413.78;;;16.91;89.89
3096;BME280;1558;42.700;23.360;2022-07-11T04:30:07;95419.53;;;16.86;89.97
3096;BME280;1558;42.700;23.360;2022-07-11T04:32:37;95427.03;;;16.92;90.25
3096;BME280;1558;42.700;23.360;2022-07-11T04:35:06;95420.44;;;16.93;90.44
3096;BME280;1558;42.700;23.360;2022-07-11T04:37:34;95415.78;;;16.94;90.70
3096;BME280;1558;42.700;23.360;2022-07-11T04:40:03;95403.41;;;16.74;91.09
3096;BME280;1558;42.700;23.360;2022-07-11T04:42:38;95415.09;;;17.01;90.95
3096;BME280;1558;42.700;23.360;2022-07-11T04:45:07;95421.09;;;17.13;90.59
3096;BME280;1558;42.700;23.360;2022-07-11T04:47:36;95424.19;;;17.12;90.35
3096;BME280;1558;42.700;23.360;2022-07-11T04:50:05;95424.28;;;17.19;90.18
3096;BME280;1558;42.700;23.360;2022-07-11T04:52:33;95420.16;;;17.32;89.54
3096;BME280;1558;42.700;23.360;2022-07-11T04:55:01;95418.75;;;17.45;88.77
3096;BME280;1558;42.700;23.360;2022-07-11T04:57:29;95417.78;;;17.60;88.27
3096;BME280;1558;42.700;23.360;2022-07-11T04:59:57;95429.19;;;17.69;87.12
3096;BME280;1558;42.700;23.360;2022-07-11T05:02:24;95408.22;;;17.73;86.47
3096;BME280;1558;42.700;23.360;2022-07-11T05:04:54;95431.34;;;17.86;85.80
3096;BME280;1558;42.700;23.360;2022-07-11T05:07:22;95427.88;;;17.93;84.54
3096;BME280;1558;42.700;23.360;2022-07-11T05:09:50;95380.50;;;17.71;83.72
3096;BME280;1558;42.700;23.360;2022-07-11T05:12:18;95430.88;;;18.17;83.93
3096;BME280;1558;42.700;23.360;2022-07-11T05:14:46;95429.00;;;18.28;82.47
3096;BME280;1558;42.700;23.360;2022-07-11T05:17:15;95440.69;;;18.66;81.23
3096;BME280;1558;42.700;23.360;2022-07-11T05:19:43;95444.84;;;19.07;79.77
3096;BME280;1558;42.700;23.360;2022-07-11T05:22:12;95455.91;;;19.28;78.31
3096;BME280;1558;42.700;23.360;2022-07-11T05:24:40;95458.34;;;19.40;76.57
3096;BME280;1558;42.700;23.360;2022-07-11T05:27:08;95446.59;;;19.36;76.78
3096;BME280;1558;42.700;23.360;2022-07-11T05:29:36;95449.06;;;19.66;76.54
3096;BME280;1558;42.700;23.360;2022-07-11T05:32:05;95442.56;;;20.13;75.18
3096;BME280;1558;42.700;23.360;2022-07-11T05:34:33;95443.00;;;20.22;73.72
3096;BME280;1558;42.700;23.360;2022-07-11T05:37:01;95414.38;;;20.16;73.92
3096;BME280;1558;42.700;23.360;2022-07-11T05:39:30;95426.16;;;20.90;72.49
3096;BME280;1558;42.700;23.360;2022-07-11T05:41:58;95412.81;;;20.92;70.96
3096;BME280;1558;42.700;23.360;2022-07-11T05:44:26;95450.94;;;21.98;67.22
3096;BME280;1558;42.700;23.360;2022-07-11T05:46:58;95422.09;;;22.31;63.12
3096;BME280;1558;42.700;23.360;2022-07-11T05:49:27;95455.25;;;22.03;60.39
3096;BME280;1558;42.700;23.360;2022-07-11T05:51:55;95345.59;;;21.57;60.14
3096;BME280;1558;42.700;23.360;2022-07-11T05:54:23;95455.13;;;22.24;56.69
3096;BME280;1558;42.700;23.360;2022-07-11T05:56:53;95453.75;;;21.81;56.24
3096;BME280;1558;42.700;23.360;2022-07-11T05:59:21;95453.69;;;21.95;56.37
3096;BME280;1558;42.700;23.360;2022-07-11T06:01:49;95446.22;;;21.99;56.06
3096;BME280;1558;42.700;23.360;2022-07-11T06:04:17;95447.78;;;22.03;54.32
3096;BME280;1558;42.700;23.360;2022-07-11T06:06:45;95423.25;;;21.54;54.70
3096;BME280;1558;42.700;23.360;2022-07-11T06:09:14;95431.69;;;22.05;52.34
3096;BME280;1558;42.700;23.360;2022-07-11T06:11:41;95438.56;;;22.31;52.22
3096;BME280;1558;42.700;23.360;2022-07-11T06:14:10;95443.41;;;22.68;50.90
3096;BME280;1558;42.700;23.360;2022-07-11T06:16:38;95437.81;;;22.27;49.15
3096;BME280;1558;42.700;23.360;2022-07-11T06:19:06;95444.03;;;22.35;49.44
3096;BME280;1558;42.700;23.360;2022-07-11T06:21:34;95428.13;;;22.67;48.16
3096;BME280;1558;42.700;23.360;2022-07-11T06:24:02;95397.59;;;22.51;47.90
3096;BME280;1558;42.700;23.360;2022-07-11T06:26:31;95433.44;;;22.37;49.19
3096;BME280;1558;42.700;23.360;2022-07-11T06:28:59;95438.34;;;22.04;48.08
3096;BME280;1558;42.700;23.360;2022-07-11T06:31:28;95433.59;;;22.08;47.37
3096;BME280;1558;42.700;23.360;2022-07-11T06:33:56;95430.09;;;22.04;46.92
3096;BME280;1558;42.700;23.360;2022-07-11T06:36:24;95436.38;;;22.05;47.61
3096;BME280;1558;42.700;23.360;2022-07-11T06:38:53;95447.66;;;22.24;47.55
3096;BME280;1558;42.700;23.360;2022-07-11T06:41:21;95448.22;;;22.57;45.22
3096;BME280;1558;42.700;23.360;2022-07-11T06:43:49;95445.97;;;22.96;44.99
3096;BME280;1558;42.700;23.360;2022-07-11T06:46:18;95447.03;;;22.58;43.71
3096;BME280;1558;42.700;23.360;2022-07-11T06:48:47;95446.91;;;22.17;44.41
3096;BME280;1558;42.700;23.360;2022-07-11T06:51:16;95446.88;;;22.24;45.52
3096;BME280;1558;42.700;23.360;2022-07-11T06:53:44;95444.78;;;22.42;45.52
3096;BME280;1558;42.700;23.360;2022-07-11T06:56:12;95446.28;;;22.50;46.15
3096;BME280;1558;42.700;23.360;2022-07-11T06:58:40;95458.03;;;22.61;44.29
3096;BME280;1558;42.700;23.360;2022-07-11T07:01:08;95421.28;;;22.34;44.25
3096;BME280;1558;42.700;23.360;2022-07-11T07:03:37;95441.75;;;22.26;43.27
3096;BME280;1558;42.700;23.360;2022-07-11T07:06:07;95456.66;;;22.32;43.73
3096;BME280;1558;42.700;23.360;2022-07-11T07:08:34;95423.41;;;22.67;43.87
3096;BME280;1558;42.700;23.360;2022-07-11T07:11:03;95455.63;;;23.52;42.63
3096;BME280;1558;42.700;23.360;2022-07-11T07:13:35;95447.81;;;23.06;42.07
3096;BME280;1558;42.700;23.360;2022-07-11T07:16:03;95451.09;;;23.31;41.48
3096;BME280;1558;42.700;23.360;2022-07-11T07:18:34;95445.47;;;23.45;41.70
3096;BME280;1558;42.700;23.360;2022-07-11T07:21:09;95444.75;;;23.34;41.86
3096;BME280;1558;42.700;23.360;2022-07-11T07:23:37;95455.03;;;23.30;42.31
3096;BME280;1558;42.700;23.360;2022-07-11T07:26:06;95458.59;;;23.27;42.18
3096;BME280;1558;42.700;23.360;2022-07-11T07:28:34;95314.06;;;22.34;41.13
3096;BME280;1558;42.700;23.360;2022-07-11T07:31:04;95456.47;;;23.08;41.33
3096;BME280;1558;42.700;23.360;2022-07-11T07:33:38;95450.53;;;23.84;41.56
3096;BME280;1558;42.700;23.360;2022-07-11T07:36:13;95425.56;;;22.90;40.72
3096;BME280;1558;42.700;23.360;2022-07-11T07:38:42;95447.72;;;23.13;41.13
3096;BME280;1558;42.700;23.360;2022-07-11T07:41:13;95442.44;;;23.36;40.96
3096;BME280;1558;42.700;23.360;2022-07-11T07:43:41;95457.44;;;23.28;41.03
3096;BME280;1558;42.700;23.360;2022-07-11T07:46:09;95458.19;;;23.70;41.18
3096;BME280;1558;42.700;23.360;2022-07-11T07:48:38;95451.59;;;24.24;40.17
3096;BME280;1558;42.700;23.360;2022-07-11T07:51:06;95452.13;;;24.42;39.74
3096;BME280;1558;42.700;23.360;2022-07-11T07:53:36;95433.94;;;23.88;39.91
3096;BME280;1558;42.700;23.360;2022-07-11T07:56:04;95460.78;;;23.80;40.59
3096;BME280;1558;42.700;23.360;2022-07-11T07:58:33;95459.38;;;23.99;40.44
3096;BME280;1558;42.700;23.360;2022-07-11T08:01:01;95464.44;;;24.04;40.23
3096;BME280;1558;42.700;23.360;2022-07-11T08:03:46;95453.81;;;23.72;40.66
3096;BME280;1558;42.700;23.360;2022-07-11T08:06:14;95450.69;;;23.70;40.54
3096;BME280;1558;42.700;23.360;2022-07-11T08:08:44;95463.47;;;23.87;40.70
3096;BME280;1558;42.700;23.360;2022-07-11T08:11:12;95443.88;;;24.65;39.46
3096;BME280;1558;42.700;23.360;2022-07-11T08:13:57;95440.59;;;24.20;38.79
3096;BME280;1558;42.700;23.360;2022-07-11T08:16:25;95467.19;;;23.74;39.84
3096;BME280;1558;42.700;23.360;2022-07-11T08:18:56;95465.13;;;23.47;40.33
3096;BME280;1558;42.700;23.360;2022-07-11T08:21:24;95467.97;;;23.37;40.12
3096;BME280;1558;42.700;23.360;2022-07-11T08:23:54;95461.47;;;23.58;39.84
3096;BME280;1558;42.700;23.360;2022-07-11T08:26:22;95426.13;;;24.13;38.84
3096;BME280;1558;42.700;23.360;2022-07-11T08:28:59;95407.66;;;23.80;39.46
3096;BME280;1558;42.700;23.360;2022-07-11T08:31:27;95457.84;;;24.28;39.12
3096;BME280;1558;42.700;23.360;2022-07-11T08:33:55;95452.28;;;24.32;37.54
3096;BME280;1558;42.700;23.360;2022-07-11T08:36:26;95451.44;;;24.04;38.07
3096;BME280;1558;42.700;23.360;2022-07-11T08:38:58;95441.50;;;24.14;37.66
3096;BME280;1558;42.700;23.360;2022-07-11T08:41:27;95458.13;;;23.73;38.34
3096;BME280;1558;42.700;23.360;2022-07-11T08:43:55;95461.50;;;23.88;38.81
3096;BME280;1558;42.700;23.360;2022-07-11T08:46:24;95458.81;;;23.81;38.53
3096;BME280;1558;42.700;23.360;2022-07-11T08:48:54;95443.28;;;23.64;38.87
3096;BME280;1558;42.700;23.360;2022-07-11T08:51:23;95452.53;;;24.14;37.97
3096;BME280;1558;42.700;23.360;2022-07-11T08:53:54;95453.84;;;23.69;38.55
3096;BME280;1558;42.700;23.360;2022-07-11T08:56:24;95461.13;;;23.86;38.57
3096;BME280;1558;42.700;23.360;2022-07-11T08:58:53;95467.97;;;24.08;36.39
3096;BME280;1558;42.700;23.360;2022-07-11T09:01:27;95473.41;;;23.81;36.09
3096;BME280;1558;42.700;23.360;2022-07-11T09:03:56;95443.91;;;23.44;35.92
3096;BME280;1558;42.700;23.360;2022-07-11T09:06:25;95465.22;;;24.04;35.60
3096;BME280;1558;42.700;23.360;2022-07-11T09:08:56;95462.94;;;24.56;35.07
3096;BME280;1558;42.700;23.360;2022-07-11T09:11:26;95468.75;;;24.35;34.79
3096;BME280;1558;42.700;23.360;2022-07-11T09:13:55;95468.97;;;24.21;35.31
3096;BME280;1558;42.700;23.360;2022-07-11T09:16:23;95457.34;;;24.06;35.71
3096;BME280;1558;42.700;23.360;2022-07-11T09:18:57;95469.50;;;23.79;35.83
3096;BME280;1558;42.700;23.360;2022-07-11T09:21:26;95470.84;;;23.94;35.76
3096;BME280;1558;42.700;23.360;2022-07-11T09:24:11;95469.94;;;24.07;35.19
3096;BME280;1558;42.700;23.360;2022-07-11T09:26:58;95486.97;;;24.29;35.49
3096;BME280;1558;42.700;23.360;2022-07-11T09:29:26;95475.47;;;24.07;35.19
3096;BME280;1558;42.700;23.360;2022-07-11T09:31:54;95470.91;;;24.51;35.14
3096;BME280;1558;42.700;23.360;2022-07-11T09:34:23;95463.88;;;24.46;34.52
3096;BME280;1558;42.700;23.360;2022-07-11T09:36:55;95477.53;;;23.96;35.42
3096;BME280;1558;42.700;23.360;2022-07-11T09:39:24;95488.69;;;23.52;35.60
3096;BME280;1558;42.700;23.360;2022-07-11T09:41:54;95480.00;;;23.53;36.39
3096;BME280;1558;42.700;23.360;2022-07-11T09:44:25;95461.84;;;23.90;35.35
3096;BME280;1558;42.700;23.360;2022-07-11T09:46:56;95410.13;;;23.40;36.24
3096;BME280;1558;42.700;23.360;2022-07-11T09:49:32;95425.03;;;23.77;34.66
3096;BME280;1558;42.700;23.360;2022-07-11T09:52:08;95453.94;;;23.95;35.20
3096;BME280;1558;42.700;23.360;2022-07-11T09:54:58;95471.06;;;24.40;35.68
3096;BME280;1558;42.700;23.360;2022-07-11T09:57:31;95454.97;;;24.62;35.14
3096;BME280;1558;42.700;23.360;2022-07-11T10:00:02;95468.03;;;24.84;33.78
3096;BME280;1558;42.700;23.360;2022-07-11T10:02:31;95483.38;;;24.02;35.08
3096;BME280;1558;42.700;23.360;2022-07-11T10:05:00;95477.75;;;24.39;36.06
3096;BME280;1558;42.700;23.360;2022-07-11T10:07:29;95426.69;;;24.31;35.52
3096;BME280;1558;42.700;23.360;2022-07-11T10:09:57;95473.97;;;25.29;35.10
3096;BME280;1558;42.700;23.360;2022-07-11T10:12:26;95482.81;;;25.21;34.66
3096;BME280;1558;42.700;23.360;2022-07-11T10:14:56;95425.63;;;24.48;35.59
3096;BME280;1558;42.700;23.360;2022-07-11T10:17:30;95476.47;;;25.01;34.64
3096;BME280;1558;42.700;23.360;2022-07-11T10:20:09;95463.16;;;24.42;35.34
3096;BME280;1558;42.700;23.360;2022-07-11T10:22:42;95474.78;;;24.53;34.79
3096;BME280;1558;42.700;23.360;2022-07-11T10:25:17;95478.56;;;24.93;33.88
3096;BME280;1558;42.700;23.360;2022-07-11T10:28:00;95474.50;;;24.74;33.66
3096;BME280;1558;42.700;23.360;2022-07-11T10:30:43;95472.72;;;24.87;34.99
3096;BME280;1558;42.700;23.360;2022-07-11T10:33:14;95472.41;;;24.82;35.24
3096;BME280;1558;42.700;23.360;2022-07-11T10:35:44;95453.28;;;25.18;35.64
3096;BME280;1558;42.700;23.360;2022-07-11T10:38:13;95472.41;;;24.55;35.57
3096;BME280;1558;42.700;23.360;2022-07-11T10:40:42;95480.28;;;24.83;35.84
3096;BME280;1558;42.700;23.360;2022-07-11T10:43:13;95480.66;;;25.09;35.16
3096;BME280;1558;42.700;23.360;2022-07-11T10:46:06;95423.75;;;24.92;35.00
3096;BME280;1558;42.700;23.360;2022-07-11T10:48:55;95475.91;;;25.32;35.02
3096;BME280;1558;42.700;23.360;2022-07-11T10:51:30;95485.41;;;25.54;34.51
3096;BME280;1558;42.700;23.360;2022-07-11T10:54:28;95473.50;;;25.77;34.18
3096;BME280;1558;42.700;23.360;2022-07-11T10:57:11;95485.41;;;25.54;34.05
3096;BME280;1558;42.700;23.360;2022-07-11T10:59:58;95408.25;;;24.74;34.64
3096;BME280;1558;42.700;23.360;2022-07-11T11:02:26;95475.22;;;25.25;34.24
3096;BME280;1558;42.700;23.360;2022-07-11T11:04:57;95441.34;;;25.24;34.73
3096;BME280;1558;42.700;23.360;2022-07-11T11:07:37;95460.81;;;25.60;33.68
3096;BME280;1558;42.700;23.360;2022-07-11T11:13:14;95486.34;;;25.21;34.28
3096;BME280;1558;42.700;23.360;2022-07-11T11:15:44;95491.22;;;25.60;34.10
3096;BME280;1558;42.700;23.360;2022-07-11T11:18:36;95467.56;;;25.36;33.69
3096;BME280;1558;42.700;23.360;2022-07-11T11:21:24;95491.91;;;26.03;34.69
3096;BME280;1558;42.700;23.360;2022-07-11T11:24:06;95495.16;;;25.13;34.21
3096;BME280;1558;42.700;23.360;2022-07-11T11:26:44;95475.34;;;25.18;34.55
3096;BME280;1558;42.700;23.360;2022-07-11T11:29:18;95484.25;;;25.06;34.53
3096;BME280;1558;42.700;23.360;2022-07-11T11:31:52;95481.53;;;24.52;35.94
3096;BME280;1558;42.700;23.360;2022-07-11T11:34:20;95475.25;;;24.78;36.07
3096;BME280;1558;42.700;23.360;2022-07-11T11:36:55;95480.84;;;24.98;34.68
3096;BME280;1558;42.700;23.360;2022-07-11T11:39:25;95455.56;;;24.73;33.99
3096;BME280;1558;42.700;23.360;2022-07-11T11:42:00;95419.44;;;24.14;35.15
3096;BME280;1558;42.700;23.360;2022-07-11T11:44:29;95478.97;;;24.92;35.41
3096;BME280;1558;42.700;23.360;2022-07-11T11:46:57;95325.47;;;24.51;34.81
3096;BME280;1558;42.700;23.360;2022-07-11T11:49:25;95439.94;;;25.13;34.59
3096;BME280;1558;42.700;23.360;2022-07-11T11:51:55;95422.66;;;25.09;34.25
3096;BME280;1558;42.700;23.360;2022-07-11T11:54:25;95478.94;;;25.61;35.01
3096;BME280;1558;42.700;23.360;2022-07-11T11:56:53;95469.25;;;25.53;34.83
3096;BME280;1558;42.700;23.360;2022-07-11T11:59:29;95437.13;;;25.16;35.50
3096;BME280;1558;42.700;23.360;2022-07-11T12:01:58;95474.00;;;25.52;35.37
3096;BME280;1558;42.700;23.360;2022-07-11T12:04:30;95452.44;;;24.98;35.57
3096;BME280;1558;42.700;23.360;2022-07-11T12:07:00;95451.22;;;24.49;35.39
3096;BME280;1558;42.700;23.360;2022-07-11T12:09:29;95493.81;;;24.74;35.81
3096;BME280;1558;42.700;23.360;2022-07-11T12:12:18;95436.47;;;24.36;36.06
3096;BME280;1558;42.700;23.360;2022-07-11T12:15:05;95480.75;;;24.78;35.19
3096;BME280;1558;42.700;23.360;2022-07-11T12:17:35;95486.88;;;24.36;35.69
3096;BME280;1558;42.700;23.360;2022-07-11T12:20:04;95484.44;;;24.42;35.62
3096;BME280;1558;42.700;23.360;2022-07-11T12:22:42;95441.28;;;23.98;36.27
3096;BME280;1558;42.700;23.360;2022-07-11T12:25:10;95492.41;;;24.36;36.80
3096;BME280;1558;42.700;23.360;2022-07-11T12:27:39;95372.09;;;23.62;36.42
3096;BME280;1558;42.700;23.360;2022-07-11T12:30:21;95453.41;;;23.74;37.94
3096;BME280;1558;42.700;23.360;2022-07-11T12:33:02;95474.53;;;24.17;37.61
3096;BME280;1558;42.700;23.360;2022-07-11T12:35:30;95482.28;;;23.96;36.84
3096;BME280;1558;42.700;23.360;2022-07-11T12:37:59;95471.09;;;23.76;36.59
3096;BME280;1558;42.700;23.360;2022-07-11T12:40:27;95400.13;;;23.16;37.02
3096;BME280;1558;42.700;23.360;2022-07-11T12:42:56;95491.00;;;23.53;37.69
3096;BME280;1558;42.700;23.360;2022-07-11T12:45:24;95439.91;;;23.49;37.04
3096;BME280;1558;42.700;23.360;2022-07-11T12:47:51;95444.44;;;23.29;37.70
3096;BME280;1558;42.700;23.360;2022-07-11T12:50:22;95469.19;;;23.32;37.97
3096;BME280;1558;42.700;23.360;2022-07-11T12:52:52;95441.25;;;22.93;37.86
3096;BME280;1558;42.700;23.360;2022-07-11T12:55:26;95389.34;;;22.47;38.51
3096;BME280;1558;42.700;23.360;2022-07-11T12:58:04;95437.06;;;22.78;38.76
3096;BME280;1558;42.700;23.360;2022-07-11T13:00:34;95347.56;;;22.18;38.98
3096;BME280;1558;42.700;23.360;2022-07-11T13:03:04;95467.22;;;23.33;38.35
3096;BME280;1558;42.700;23.360;2022-07-11T13:05:53;95431.34;;;22.55;38.88
3096;BME280;1558;42.700;23.360;2022-07-11T13:08:22;95319.34;;;22.11;38.77
3096;BME280;1558;42.700;23.360;2022-07-11T13:11:10;95469.06;;;23.06;37.77
3096;BME280;1558;42.700;23.360;2022-07-11T13:13:39;95394.34;;;23.07;37.15
3096;BME280;1558;42.700;23.360;2022-07-11T13:16:07;95473.88;;;24.06;36.99
3096;BME280;1558;42.700;23.360;2022-07-11T13:18:36;95298.19;;;23.23;36.44
3096;BME280;1558;42.700;23.360;2022-07-11T13:21:05;95465.41;;;25.47;36.41
3096;BME280;1558;42.700;23.360;2022-07-11T13:23:33;95346.72;;;25.60;34.83
3096;BME280;1558;42.700;23.360;2022-07-11T13:26:02;95474.66;;;26.19;34.86
3096;BME280;1558;42.700;23.360;2022-07-11T13:28:31;95430.56;;;25.53;33.79